sensor_id;sensor_type;location;lat;lon;timestamp;pressure;altitude;pressure_sealevel;temperature;humidity
27729;BME280;15126;42.186;24.340;2022-07-19T00:00:02;99953.56;;;23.04;57.34
27729;BME280;15126;42.186;24.340;2022-07-19T00:02:33;99947.00;;;22.98;57.26
27729;BME280;15126;42.186;24.340;2022-07-19T00:05:01;99949.13;;;23.03;57.43
27729;BME280;15126;42.186;24.340;2022-07-19T00:07:28;99952.97;;;23.00;58.44
27729;BME280;15126;42.186;24.340;2022-07-19T00:09:54;99949.06;;;22.97;57.37
27729;BME280;15126;42.186;24.340;2022-07-19T00:12:21;99949.59;;;22.96;57.93
27729;BME280;15126;42.186;24.340;2022-07-19T00:14:48;99949.78;;;22.92;57.79
27729;BME280;15126;42.186;24.340;2022-07-19T00:17:15;99950.78;;;22.89;57.32
27729;BME280;15126;42.186;24.340;2022-07-19T00:19:43;99943.75;;;22.85;57.31
27729;BME280;15126;42.186;24.340;2022-07-19T00:22:10;99951.00;;;22.86;57.98
27729;BME280;15126;42.186;24.340;2022-07-19T00:24:37;99951.31;;;22.88;57.68
27729;BME280;15126;42.186;24.340;2022-07-19T00:27:04;99943.75;;;22.85;58.08
27729;BME280;15126;42.186;24.340;2022-07-19T00:29:30;99940.84;;;22.79;57.36
27729;BME280;15126;42.186;24.340;2022-07-19T00:31:57;99903.00;;;22.53;57.75
27729;BME280;15126;42.186;24.340;2022-07-19T00:34:24;99939.78;;;22.77;57.52
27729;BME280;15126;42.186;24.340;2022-07-19T00:36:52;99944.56;;;22.65;57.59
27729;BME280;15126;42.186;24.340;2022-07-19T00:39:19;99943.66;;;22.59;57.58
27729;BME280;15126;42.186;24.340;2022-07-19T00:41:46;99950.41;;;22.62;57.78
27729;BME280;15126;42.186;24.340;2022-07-19T00:44:13;99950.16;;;22.60;57.87
27729;BME280;15126;42.186;24.340;2022-07-19T00:46:40;99946.75;;;22.56;57.48
27729;BME280;15126;42.186;24.340;2022-07-19T00:49:07;99945.88;;;22.49;59.23
27729;BME280;15126;42.186;24.340;2022-07-19T00:51:35;99944.91;;;22.52;57.98
27729;BME280;15126;42.186;24.340;2022-07-19T00:54:08;99945.53;;;22.42;57.55
27729;BME280;15126;42.186;24.340;2022-07-19T00:56:37;99937.91;;;22.33;57.58
27729;BME280;15126;42.186;24.340;2022-07-19T00:59:05;99945.22;;;22.20;58.26
27729;BME280;15126;42.186;24.340;2022-07-19T01:01:32;99947.97;;;22.14;59.26
27729;BME280;15126;42.186;24.340;2022-07-19T01:03:59;99941.72;;;22.10;58.35
27729;BME280;15126;42.186;24.340;2022-07-19T01:06:26;99953.88;;;22.11;58.05
27729;BME280;15126;42.186;24.340;2022-07-19T01:08:53;99951.72;;;22.06;58.19
27729;BME280;15126;42.186;24.340;2022-07-19T01:11:23;99951.91;;;22.02;58.70
27729;BME280;15126;42.186;24.340;2022-07-19T01:13:50;99953.88;;;21.96;58.64
27729;BME280;15126;42.186;24.340;2022-07-19T01:16:16;99950.56;;;21.98;59.08
27729;BME280;15126;42.186;24.340;2022-07-19T01:18:44;99952.53;;;21.91;57.85
27729;BME280;15126;42.186;24.340;2022-07-19T01:21:20;99950.28;;;21.81;58.17
27729;BME280;15126;42.186;24.340;2022-07-19T01:23:47;99947.63;;;21.77;59.40
27729;BME280;15126;42.186;24.340;2022-07-19T01:26:16;99949.41;;;21.75;59.76
27729;BME280;15126;42.186;24.340;2022-07-19T01:28:43;99948.63;;;21.74;59.45
27729;BME280;15126;42.186;24.340;2022-07-19T01:31:10;99944.50;;;21.75;60.10
27729;BME280;15126;42.186;24.340;2022-07-19T01:33:38;99942.94;;;21.74;59.26
27729;BME280;15126;42.186;24.340;2022-07-19T01:36:06;99947.06;;;21.73;58.49
27729;BME280;15126;42.186;24.340;2022-07-19T01:38:35;99935.91;;;21.70;59.40
27729;BME280;15126;42.186;24.340;2022-07-19T01:41:03;99951.06;;;21.67;58.09
27729;BME280;15126;42.186;24.340;2022-07-19T01:43:30;99943.75;;;21.60;58.33
27729;BME280;15126;42.186;24.340;2022-07-19T01:45:57;99947.56;;;21.57;58.25
27729;BME280;15126;42.186;24.340;2022-07-19T01:48:24;99944.13;;;21.53;60.04
27729;BME280;15126;42.186;24.340;2022-07-19T01:50:51;99942.59;;;21.52;60.70
27729;BME280;15126;42.186;24.340;2022-07-19T01:53:18;99943.34;;;21.53;59.77
27729;BME280;15126;42.186;24.340;2022-07-19T01:55:47;99946.69;;;21.51;60.37
27729;BME280;15126;42.186;24.340;2022-07-19T01:58:14;99943.84;;;21.51;59.27
27729;BME280;15126;42.186;24.340;2022-07-19T02:00:41;99947.97;;;21.50;59.76
27729;BME280;15126;42.186;24.340;2022-07-19T02:03:08;99947.97;;;21.50;60.22
27729;BME280;15126;42.186;24.340;2022-07-19T02:05:34;99945.13;;;21.50;58.92
27729;BME280;15126;42.186;24.340;2022-07-19T02:08:02;99947.47;;;21.52;59.77
27729;BME280;15126;42.186;24.340;2022-07-19T02:10:29;99945.91;;;21.51;59.18
27729;BME280;15126;42.186;24.340;2022-07-19T02:12:57;99942.78;;;21.49;60.25
27729;BME280;15126;42.186;24.340;2022-07-19T02:15:24;99946.09;;;21.47;58.36
27729;BME280;15126;42.186;24.340;2022-07-19T02:17:51;99944.03;;;21.48;60.11
27729;BME280;15126;42.186;24.340;2022-07-19T02:20:18;99951.28;;;21.49;60.04
27729;BME280;15126;42.186;24.340;2022-07-19T02:22:46;99949.44;;;21.46;59.06
27729;BME280;15126;42.186;24.340;2022-07-19T02:25:13;99946.59;;;21.46;60.11
27729;BME280;15126;42.186;24.340;2022-07-19T02:27:41;99934.88;;;21.38;60.37
27729;BME280;15126;42.186;24.340;2022-07-19T02:30:10;99948.94;;;21.47;61.39
27729;BME280;15126;42.186;24.340;2022-07-19T02:32:39;99945.53;;;21.43;60.66
27729;BME280;15126;42.186;24.340;2022-07-19T02:35:07;99944.44;;;21.41;61.67
27729;BME280;15126;42.186;24.340;2022-07-19T02:37:34;99937.31;;;21.30;61.60
27729;BME280;15126;42.186;24.340;2022-07-19T02:40:01;99956.50;;;21.35;61.96
27729;BME280;15126;42.186;24.340;2022-07-19T02:42:28;99957.19;;;21.30;62.00
27729;BME280;15126;42.186;24.340;2022-07-19T02:44:55;99954.72;;;21.23;61.23
27729;BME280;15126;42.186;24.340;2022-07-19T02:47:23;99952.38;;;21.22;61.11
27729;BME280;15126;42.186;24.340;2022-07-19T02:49:50;99949.22;;;21.20;61.71
27729;BME280;15126;42.186;24.340;2022-07-19T02:52:17;99949.63;;;21.13;63.15
27729;BME280;15126;42.186;24.340;2022-07-19T02:54:44;99948.59;;;21.01;63.82
27729;BME280;15126;42.186;24.340;2022-07-19T02:57:11;99941.31;;;20.86;64.49
27729;BME280;15126;42.186;24.340;2022-07-19T02:59:37;99952.84;;;20.82;65.13
27729;BME280;15126;42.186;24.340;2022-07-19T03:02:04;99939.22;;;20.71;65.85
27729;BME280;15126;42.186;24.340;2022-07-19T03:04:33;99952.16;;;20.72;66.76
27729;BME280;15126;42.186;24.340;2022-07-19T03:06:59;99951.06;;;20.70;66.10
27729;BME280;15126;42.186;24.340;2022-07-19T03:09:26;99933.72;;;20.53;66.90
27729;BME280;15126;42.186;24.340;2022-07-19T03:11:53;99947.94;;;20.68;66.07
27729;BME280;15126;42.186;24.340;2022-07-19T03:14:20;99948.41;;;20.66;66.55
27729;BME280;15126;42.186;24.340;2022-07-19T03:16:47;99950.84;;;20.59;67.01
27729;BME280;15126;42.186;24.340;2022-07-19T03:19:13;99950.59;;;20.48;66.60
27729;BME280;15126;42.186;24.340;2022-07-19T03:21:42;99956.09;;;20.51;65.83
27729;BME280;15126;42.186;24.340;2022-07-19T03:24:09;99951.41;;;20.48;67.30
27729;BME280;15126;42.186;24.340;2022-07-19T03:26:35;99950.91;;;20.50;67.18
27729;BME280;15126;42.186;24.340;2022-07-19T03:29:02;99957.78;;;20.34;67.87
27729;BME280;15126;42.186;24.340;2022-07-19T03:31:29;99962.78;;;20.39;67.87
27729;BME280;15126;42.186;24.340;2022-07-19T03:33:56;99953.19;;;20.37;67.62
27729;BME280;15126;42.186;24.340;2022-07-19T03:36:23;99942.81;;;20.34;68.00
27729;BME280;15126;42.186;24.340;2022-07-19T03:38:51;99960.06;;;20.45;67.85
27729;BME280;15126;42.186;24.340;2022-07-19T03:41:19;99953.16;;;20.46;68.65
27729;BME280;15126;42.186;24.340;2022-07-19T03:43:45;99962.91;;;20.45;69.31
27729;BME280;15126;42.186;24.340;2022-07-19T03:46:12;99941.88;;;20.37;69.17
27729;BME280;15126;42.186;24.340;2022-07-19T03:48:39;99948.91;;;20.41;68.62
27729;BME280;15126;42.186;24.340;2022-07-19T03:51:06;99968.41;;;20.48;68.39
27729;BME280;15126;42.186;24.340;2022-07-19T03:53:33;99975.81;;;20.46;69.00
27729;BME280;15126;42.186;24.340;2022-07-19T03:56:02;99968.44;;;20.39;68.80
27729;BME280;15126;42.186;24.340;2022-07-19T03:58:29;99963.28;;;20.38;68.97
27729;BME280;15126;42.186;24.340;2022-07-19T04:00:56;99968.28;;;20.43;68.50
27729;BME280;15126;42.186;24.340;2022-07-19T04:03:23;99960.13;;;20.36;69.22
27729;BME280;15126;42.186;24.340;2022-07-19T04:05:50;99974.84;;;20.49;68.14
27729;BME280;15126;42.186;24.340;2022-07-19T04:08:17;99975.81;;;20.46;67.95
27729;BME280;15126;42.186;24.340;2022-07-19T04:10:44;99978.53;;;20.40;68.66
27729;BME280;15126;42.186;24.340;2022-07-19T04:13:12;99979.91;;;20.45;67.89
27729;BME280;15126;42.186;24.340;2022-07-19T04:15:39;99973.88;;;20.28;68.05
27729;BME280;15126;42.186;24.340;2022-07-19T04:18:06;99977.66;;;20.25;67.63
27729;BME280;15126;42.186;24.340;2022-07-19T04:20:33;99977.69;;;20.49;67.33
27729;BME280;15126;42.186;24.340;2022-07-19T04:22:59;99979.53;;;20.75;66.04
27729;BME280;15126;42.186;24.340;2022-07-19T04:25:26;99972.72;;;21.35;64.12
27729;BME280;15126;42.186;24.340;2022-07-19T04:27:53;99978.19;;;21.97;61.85
27729;BME280;15126;42.186;24.340;2022-07-19T04:30:22;99980.44;;;22.63;60.11
27729;BME280;15126;42.186;24.340;2022-07-19T04:32:49;99982.00;;;23.30;58.43
27729;BME280;15126;42.186;24.340;2022-07-19T04:35:16;99985.09;;;23.78;56.98
27729;BME280;15126;42.186;24.340;2022-07-19T04:37:43;99986.78;;;24.26;55.00
27729;BME280;15126;42.186;24.340;2022-07-19T04:40:10;99985.16;;;24.62;52.98
27729;BME280;15126;42.186;24.340;2022-07-19T04:42:37;99980.97;;;25.00;52.27
27729;BME280;15126;42.186;24.340;2022-07-19T04:45:05;99977.41;;;25.22;52.26
27729;BME280;15126;42.186;24.340;2022-07-19T04:47:33;99986.53;;;25.48;51.76
27729;BME280;15126;42.186;24.340;2022-07-19T04:50:00;99981.34;;;25.63;50.89
27729;BME280;15126;42.186;24.340;2022-07-19T04:52:27;99977.72;;;25.74;51.06
27729;BME280;15126;42.186;24.340;2022-07-19T04:54:54;99992.81;;;25.80;50.38
27729;BME280;15126;42.186;24.340;2022-07-19T04:57:21;99991.75;;;25.72;50.31
27729;BME280;15126;42.186;24.340;2022-07-19T04:59:48;99988.66;;;25.70;50.45
27729;BME280;15126;42.186;24.340;2022-07-19T05:02:15;99989.16;;;25.57;50.44
27729;BME280;15126;42.186;24.340;2022-07-19T05:04:43;99988.88;;;25.55;51.71
27729;BME280;15126;42.186;24.340;2022-07-19T05:07:10;99983.16;;;25.50;51.31
27729;BME280;15126;42.186;24.340;2022-07-19T05:09:37;99989.63;;;25.39;51.60
27729;BME280;15126;42.186;24.340;2022-07-19T05:12:04;99985.72;;;25.42;52.03
27729;BME280;15126;42.186;24.340;2022-07-19T05:14:32;99984.44;;;25.43;52.13
27729;BME280;15126;42.186;24.340;2022-07-19T05:16:59;99981.81;;;25.39;52.83
27729;BME280;15126;42.186;24.340;2022-07-19T05:19:26;99980.28;;;25.44;52.49
27729;BME280;15126;42.186;24.340;2022-07-19T05:21:55;99978.19;;;25.39;51.15
27729;BME280;15126;42.186;24.340;2022-07-19T05:24:22;99983.13;;;25.38;52.85
27729;BME280;15126;42.186;24.340;2022-07-19T05:26:49;99981.09;;;25.56;52.49
27729;BME280;15126;42.186;24.340;2022-07-19T05:29:16;99985.53;;;25.62;50.62
27729;BME280;15126;42.186;24.340;2022-07-19T05:31:43;99984.50;;;25.60;51.35
27729;BME280;15126;42.186;24.340;2022-07-19T05:34:10;99988.13;;;25.71;52.67
27729;BME280;15126;42.186;24.340;2022-07-19T05:36:36;99984.47;;;25.87;51.23
27729;BME280;15126;42.186;24.340;2022-07-19T05:39:05;99973.56;;;25.91;49.14
27729;BME280;15126;42.186;24.340;2022-07-19T05:41:32;99982.94;;;26.09;49.48
27729;BME280;15126;42.186;24.340;2022-07-19T05:43:59;99987.09;;;26.13;50.63
27729;BME280;15126;42.186;24.340;2022-07-19T05:46:26;99975.66;;;26.24;49.47
27729;BME280;15126;42.186;24.340;2022-07-19T05:48:53;99974.06;;;26.34;49.51
27729;BME280;15126;42.186;24.340;2022-07-19T05:51:20;99981.34;;;26.41;48.23
27729;BME280;15126;42.186;24.340;2022-07-19T05:53:47;99982.13;;;26.41;47.69
27729;BME280;15126;42.186;24.340;2022-07-19T05:56:15;99983.41;;;26.46;48.74
27729;BME280;15126;42.186;24.340;2022-07-19T05:58:43;99978.44;;;26.57;49.48
27729;BME280;15126;42.186;24.340;2022-07-19T06:01:09;99983.34;;;26.63;47.11
27729;BME280;15126;42.186;24.340;2022-07-19T06:03:49;99978.41;;;26.63;44.95
27729;BME280;15126;42.186;24.340;2022-07-19T06:06:16;99985.41;;;26.68;45.01
27729;BME280;15126;42.186;24.340;2022-07-19T06:08:44;99985.41;;;26.73;44.91
27729;BME280;15126;42.186;24.340;2022-07-19T06:11:11;99987.75;;;26.63;44.45
27729;BME280;15126;42.186;24.340;2022-07-19T06:13:40;99978.16;;;26.55;44.28
27729;BME280;15126;42.186;24.340;2022-07-19T06:16:07;99980.22;;;26.66;46.52
27729;BME280;15126;42.186;24.340;2022-07-19T06:18:35;99984.13;;;26.80;47.22
27729;BME280;15126;42.186;24.340;2022-07-19T06:21:03;99978.84;;;26.89;45.98
27729;BME280;15126;42.186;24.340;2022-07-19T06:23:30;99973.59;;;26.99;44.65
27729;BME280;15126;42.186;24.340;2022-07-19T06:25:58;99983.16;;;27.12;45.36
27729;BME280;15126;42.186;24.340;2022-07-19T06:28:25;99972.19;;;27.16;44.42
27729;BME280;15126;42.186;24.340;2022-07-19T06:30:54;99981.78;;;27.25;43.86
27729;BME280;15126;42.186;24.340;2022-07-19T06:33:21;99970.25;;;27.41;44.65
27729;BME280;15126;42.186;24.340;2022-07-19T06:35:49;99978.31;;;27.43;44.04
27729;BME280;15126;42.186;24.340;2022-07-19T06:38:16;99974.16;;;27.44;44.39
27729;BME280;15126;42.186;24.340;2022-07-19T06:40:43;99985.63;;;27.44;47.80
27729;BME280;15126;42.186;24.340;2022-07-19T06:43:11;99978.19;;;27.59;50.47
27729;BME280;15126;42.186;24.340;2022-07-19T06:45:39;99977.28;;;27.75;46.44
27729;BME280;15126;42.186;24.340;2022-07-19T06:48:08;99968.06;;;27.88;46.65
27729;BME280;15126;42.186;24.340;2022-07-19T06:50:35;99974.94;;;28.09;43.75
27729;BME280;15126;42.186;24.340;2022-07-19T06:53:02;99963.13;;;27.83;44.98
27729;BME280;15126;42.186;24.340;2022-07-19T06:55:29;99971.59;;;28.05;47.32
27729;BME280;15126;42.186;24.340;2022-07-19T06:57:56;99963.59;;;28.22;46.58
27729;BME280;15126;42.186;24.340;2022-07-19T07:00:23;99967.19;;;28.28;46.69
27729;BME280;15126;42.186;24.340;2022-07-19T07:02:50;99968.97;;;28.56;46.08
27729;BME280;15126;42.186;24.340;2022-07-19T07:05:19;99967.84;;;28.40;41.70
27729;BME280;15126;42.186;24.340;2022-07-19T07:07:46;99968.03;;;28.48;44.73
27729;BME280;15126;42.186;24.340;2022-07-19T07:10:14;99958.75;;;28.60;46.41
27729;BME280;15126;42.186;24.340;2022-07-19T07:12:41;99967.53;;;28.68;46.32
27729;BME280;15126;42.186;24.340;2022-07-19T07:15:09;99961.81;;;28.86;43.16
27729;BME280;15126;42.186;24.340;2022-07-19T07:17:36;99958.19;;;28.86;39.63
27729;BME280;15126;42.186;24.340;2022-07-19T07:20:05;99959.72;;;28.87;42.60
27729;BME280;15126;42.186;24.340;2022-07-19T07:22:35;99961.81;;;28.86;39.53
27729;BME280;15126;42.186;24.340;2022-07-19T07:25:04;99951.59;;;28.72;45.93
27729;BME280;15126;42.186;24.340;2022-07-19T07:27:31;99963.69;;;28.84;41.19
27729;BME280;15126;42.186;24.340;2022-07-19T07:29:59;99953.53;;;28.83;42.21
27729;BME280;15126;42.186;24.340;2022-07-19T07:32:26;99949.81;;;28.88;46.05
27729;BME280;15126;42.186;24.340;2022-07-19T07:34:54;99959.44;;;29.09;42.54
27729;BME280;15126;42.186;24.340;2022-07-19T07:37:21;99953.91;;;29.11;42.66
27729;BME280;15126;42.186;24.340;2022-07-19T07:39:50;99951.84;;;29.30;41.90
27729;BME280;15126;42.186;24.340;2022-07-19T07:42:17;99949.66;;;29.36;42.25
27729;BME280;15126;42.186;24.340;2022-07-19T07:44:44;99946.56;;;29.34;41.65
27729;BME280;15126;42.186;24.340;2022-07-19T07:47:11;99956.81;;;29.30;38.58
27729;BME280;15126;42.186;24.340;2022-07-19T07:49:39;99953.38;;;29.50;39.20
27729;BME280;15126;42.186;24.340;2022-07-19T07:52:06;99954.91;;;29.70;38.92
27729;BME280;15126;42.186;24.340;2022-07-19T07:54:34;99948.22;;;29.62;34.53
27729;BME280;15126;42.186;24.340;2022-07-19T07:57:03;99948.50;;;29.77;37.70
27729;BME280;15126;42.186;24.340;2022-07-19T07:59:30;99940.38;;;29.62;32.62
27729;BME280;15126;42.186;24.340;2022-07-19T08:01:57;99944.66;;;29.56;34.64
27729;BME280;15126;42.186;24.340;2022-07-19T08:04:24;99947.03;;;29.70;40.02
27729;BME280;15126;42.186;24.340;2022-07-19T08:06:50;99938.81;;;29.93;38.58
27729;BME280;15126;42.186;24.340;2022-07-19T08:09:17;99941.72;;;30.06;32.47
27729;BME280;15126;42.186;24.340;2022-07-19T08:11:45;99930.00;;;30.17;33.33
27729;BME280;15126;42.186;24.340;2022-07-19T08:14:14;99933.78;;;30.25;34.56
27729;BME280;15126;42.186;24.340;2022-07-19T08:16:41;99939.88;;;30.22;35.90
27729;BME280;15126;42.186;24.340;2022-07-19T08:19:08;99935.22;;;30.05;29.33
27729;BME280;15126;42.186;24.340;2022-07-19T08:21:35;99928.47;;;30.16;30.27
27729;BME280;15126;42.186;24.340;2022-07-19T08:24:02;99926.69;;;30.26;33.67
27729;BME280;15126;42.186;24.340;2022-07-19T08:26:30;99922.47;;;30.14;31.98
27729;BME280;15126;42.186;24.340;2022-07-19T08:28:57;99927.84;;;30.36;35.75
27729;BME280;15126;42.186;24.340;2022-07-19T08:31:25;99896.69;;;30.22;31.53
27729;BME280;15126;42.186;24.340;2022-07-19T08:33:53;99909.00;;;30.35;28.14
27729;BME280;15126;42.186;24.340;2022-07-19T08:36:20;99914.28;;;30.18;28.06
27729;BME280;15126;42.186;24.340;2022-07-19T08:38:47;99906.66;;;30.21;32.27
27729;BME280;15126;42.186;24.340;2022-07-19T08:41:15;99906.88;;;30.09;32.30
27729;BME280;15126;42.186;24.340;2022-07-19T08:43:42;99913.75;;;30.33;33.44
27729;BME280;15126;42.186;24.340;2022-07-19T08:46:10;99910.56;;;30.36;32.91
27729;BME280;15126;42.186;24.340;2022-07-19T08:48:38;99912.63;;;30.09;28.19
27729;BME280;15126;42.186;24.340;2022-07-19T08:51:07;99904.88;;;29.91;28.56
27729;BME280;15126;42.186;24.340;2022-07-19T08:53:34;99898.81;;;29.76;27.99
27729;BME280;15126;42.186;24.340;2022-07-19T08:56:06;99905.84;;;29.94;30.72
27729;BME280;15126;42.186;24.340;2022-07-19T08:58:47;99900.56;;;29.66;28.75
27729;BME280;15126;42.186;24.340;2022-07-19T09:01:14;99902.97;;;29.81;29.30
27729;BME280;15126;42.186;24.340;2022-07-19T09:04:04;99891.69;;;29.96;30.74
27729;BME280;15126;42.186;24.340;2022-07-19T09:06:40;99876.78;;;29.97;31.53
27729;BME280;15126;42.186;24.340;2022-07-19T09:09:08;99901.09;;;29.83;29.11
27729;BME280;15126;42.186;24.340;2022-07-19T09:11:37;99898.13;;;30.15;31.27
27729;BME280;15126;42.186;24.340;2022-07-19T09:14:07;99892.94;;;30.27;26.57
27729;BME280;15126;42.186;24.340;2022-07-19T09:16:54;99899.69;;;30.16;28.66
27729;BME280;15126;42.186;24.340;2022-07-19T09:19:24;99889.91;;;29.93;28.88
27729;BME280;15126;42.186;24.340;2022-07-19T09:21:53;99886.94;;;30.12;31.17
27729;BME280;15126;42.186;24.340;2022-07-19T09:24:21;99893.03;;;30.08;29.21
27729;BME280;15126;42.186;24.340;2022-07-19T09:27:00;99888.59;;;30.20;30.33
27729;BME280;15126;42.186;24.340;2022-07-19T09:29:28;99884.84;;;30.25;32.92
27729;BME280;15126;42.186;24.340;2022-07-19T09:32:00;99890.53;;;30.44;34.33
27729;BME280;15126;42.186;24.340;2022-07-19T09:34:29;99885.66;;;30.52;27.33
27729;BME280;15126;42.186;24.340;2022-07-19T09:37:10;99876.00;;;30.49;28.18
27729;BME280;15126;42.186;24.340;2022-07-19T09:39:37;99872.44;;;30.56;29.87
27729;BME280;15126;42.186;24.340;2022-07-19T09:42:07;99883.06;;;30.61;27.89
27729;BME280;15126;42.186;24.340;2022-07-19T09:44:34;99881.97;;;30.64;28.50
27729;BME280;15126;42.186;24.340;2022-07-19T09:47:02;99880.06;;;30.67;29.32
27729;BME280;15126;42.186;24.340;2022-07-19T09:49:30;99876.78;;;30.50;29.66
27729;BME280;15126;42.186;24.340;2022-07-19T09:51:57;99881.53;;;30.47;29.41
27729;BME280;15126;42.186;24.340;2022-07-19T09:54:25;99873.00;;;30.55;29.43
27729;BME280;15126;42.186;24.340;2022-07-19T09:56:54;99874.66;;;30.50;31.24
27729;BME280;15126;42.186;24.340;2022-07-19T09:59:23;99875.75;;;30.60;28.43
27729;BME280;15126;42.186;24.340;2022-07-19T10:01:52;99878.63;;;30.74;28.36
27729;BME280;15126;42.186;24.340;2022-07-19T10:04:22;99871.66;;;30.69;28.53
27729;BME280;15126;42.186;24.340;2022-07-19T10:06:52;99864.34;;;30.55;28.39
27729;BME280;15126;42.186;24.340;2022-07-19T10:09:21;99862.91;;;30.61;31.79
27729;BME280;15126;42.186;24.340;2022-07-19T10:11:51;99860.69;;;30.67;30.43
27729;BME280;15126;42.186;24.340;2022-07-19T10:14:19;99854.94;;;30.67;28.92
27729;BME280;15126;42.186;24.340;2022-07-19T10:16:54;99861.34;;;30.74;27.43
27729;BME280;15126;42.186;24.340;2022-07-19T10:19:31;99861.16;;;30.45;28.57
27729;BME280;15126;42.186;24.340;2022-07-19T10:22:02;99856.84;;;30.52;27.02
27729;BME280;15126;42.186;24.340;2022-07-19T10:24:47;99845.63;;;30.61;30.95
27729;BME280;15126;42.186;24.340;2022-07-19T10:27:16;99852.59;;;30.79;28.07
27729;BME280;15126;42.186;24.340;2022-07-19T10:29:44;99840.69;;;30.83;27.69
27729;BME280;15126;42.186;24.340;2022-07-19T10:32:13;99851.31;;;30.88;28.68
27729;BME280;15126;42.186;24.340;2022-07-19T10:34:41;99843.94;;;30.79;30.19
27729;BME280;15126;42.186;24.340;2022-07-19T10:37:12;99832.09;;;30.70;26.93
27729;BME280;15126;42.186;24.340;2022-07-19T10:39:40;99834.53;;;30.79;26.60
27729;BME280;15126;42.186;24.340;2022-07-19T10:42:15;99829.63;;;30.87;27.24
27729;BME280;15126;42.186;24.340;2022-07-19T10:45:16;99828.84;;;30.86;27.40
27729;BME280;15126;42.186;24.340;2022-07-19T10:48:07;99806.56;;;30.87;28.08
27729;BME280;15126;42.186;24.340;2022-07-19T10:50:56;99822.84;;;30.97;34.15
27729;BME280;15126;42.186;24.340;2022-07-19T10:53:58;99811.66;;;30.94;29.70
27729;BME280;15126;42.186;24.340;2022-07-19T10:56:55;99821.88;;;30.82;27.76
27729;BME280;15126;42.186;24.340;2022-07-19T10:59:31;99829.03;;;30.88;30.26
27729;BME280;15126;42.186;24.340;2022-07-19T11:01:59;99778.09;;;30.49;29.64
27729;BME280;15126;42.186;24.340;2022-07-19T11:04:31;99811.75;;;30.54;28.82
27729;BME280;15126;42.186;24.340;2022-07-19T11:07:16;99805.19;;;30.67;29.94
27729;BME280;15126;42.186;24.340;2022-07-19T11:09:49;99806.56;;;30.87;28.93
27729;BME280;15126;42.186;24.340;2022-07-19T11:12:28;99804.97;;;30.99;28.08
27729;BME280;15126;42.186;24.340;2022-07-19T11:14:56;99793.53;;;31.06;28.26
27729;BME280;15126;42.186;24.340;2022-07-19T11:17:23;99789.50;;;31.09;27.39
27729;BME280;15126;42.186;24.340;2022-07-19T11:20:04;99791.72;;;31.16;28.06
27729;BME280;15126;42.186;24.340;2022-07-19T11:22:37;99776.72;;;31.18;26.66
27729;BME280;15126;42.186;24.340;2022-07-19T11:25:08;99795.50;;;31.32;30.05
27729;BME280;15126;42.186;24.340;2022-07-19T11:27:36;99790.06;;;31.29;27.03
27729;BME280;15126;42.186;24.340;2022-07-19T11:30:07;99781.91;;;31.40;29.10
27729;BME280;15126;42.186;24.340;2022-07-19T11:32:34;99781.44;;;31.49;28.14
27729;BME280;15126;42.186;24.340;2022-07-19T11:35:04;99779.75;;;31.54;27.44
27729;BME280;15126;42.186;24.340;2022-07-19T11:37:33;99766.31;;;31.56;28.17
27729;BME280;15126;42.186;24.340;2022-07-19T11:40:01;99781.28;;;31.83;30.10
27729;BME280;15126;42.186;24.340;2022-07-19T11:42:36;99757.81;;;31.79;25.68
27729;BME280;15126;42.186;24.340;2022-07-19T11:45:11;99769.19;;;31.85;26.16
27729;BME280;15126;42.186;24.340;2022-07-19T11:47:43;99761.97;;;31.70;28.81
27729;BME280;15126;42.186;24.340;2022-07-19T11:50:12;99767.13;;;31.64;26.39
27729;BME280;15126;42.186;24.340;2022-07-19T11:52:44;99762.25;;;31.52;26.89
27729;BME280;15126;42.186;24.340;2022-07-19T11:55:11;99757.41;;;31.47;27.14
27729;BME280;15126;42.186;24.340;2022-07-19T11:57:40;99766.31;;;31.56;26.10
27729;BME280;15126;42.186;24.340;2022-07-19T12:00:09;99757.44;;;31.54;25.61
27729;BME280;15126;42.186;24.340;2022-07-19T12:02:55;99749.06;;;31.43;28.23
27729;BME280;15126;42.186;24.340;2022-07-19T12:05:25;99751.75;;;31.41;26.30
27729;BME280;15126;42.186;24.340;2022-07-19T12:07:53;99741.75;;;31.42;26.59
27729;BME280;15126;42.186;24.340;2022-07-19T12:10:35;99748.94;;;31.49;28.38
27729;BME280;15126;42.186;24.340;2022-07-19T12:13:05;99743.97;;;31.49;29.54
27729;BME280;15126;42.186;24.340;2022-07-19T12:15:45;99741.47;;;31.53;28.28
27729;BME280;15126;42.186;24.340;2022-07-19T12:18:12;99740.19;;;31.62;27.61
27729;BME280;15126;42.186;24.340;2022-07-19T12:20:40;99723.06;;;31.64;28.26
27729;BME280;15126;42.186;24.340;2022-07-19T12:23:14;99716.59;;;31.71;27.58
27729;BME280;15126;42.186;24.340;2022-07-19T12:25:42;99733.09;;;31.63;27.02
27729;BME280;15126;42.186;24.340;2022-07-19T12:28:11;99725.66;;;31.75;26.41
27729;BME280;15126;42.186;24.340;2022-07-19T12:30:38;99726.13;;;31.58;27.97
27729;BME280;15126;42.186;24.340;2022-07-19T12:33:07;99726.34;;;31.60;27.13
27729;BME280;15126;42.186;24.340;2022-07-19T12:35:41;99731.56;;;31.69;25.87
27729;BME280;15126;42.186;24.340;2022-07-19T12:38:08;99718.88;;;31.65;28.16
27729;BME280;15126;42.186;24.340;2022-07-19T12:40:37;99714.97;;;31.55;27.95
27729;BME280;15126;42.186;24.340;2022-07-19T12:43:05;99708.78;;;31.51;27.58
27729;BME280;15126;42.186;24.340;2022-07-19T12:45:35;99705.03;;;31.43;26.61
27729;BME280;15126;42.186;24.340;2022-07-19T12:48:05;99710.03;;;31.42;26.82
27729;BME280;15126;42.186;24.340;2022-07-19T12:50:34;99699.56;;;31.32;26.85
27729;BME280;15126;42.186;24.340;2022-07-19T12:53:04;99701.16;;;31.40;28.46
27729;BME280;15126;42.186;24.340;2022-07-19T12:55:32;99696.06;;;31.46;26.86
27729;BME280;15126;42.186;24.340;2022-07-19T12:58:01;99685.69;;;31.51;26.79